sensor_id;sensor_type;location;lat;lon;timestamp;P1;durP1;ratioP1;P2;durP2;ratioP2
48026;SDS011;50714;49.208;5.364;2022-12-18T00:04:28;16.25;;;13.02;;
48026;SDS011;50714;49.208;5.364;2022-12-18T00:14:28;14.80;;;13.02;;
48026;SDS011;50714;49.208;5.364;2022-12-18T00:24:29;17.00;;;13.25;;
48026;SDS011;50714;49.208;5.364;2022-12-18T00:34:29;17.42;;;12.75;;
48026;SDS011;50714;49.208;5.364;2022-12-18T00:44:29;14.35;;;12.13;;
48026;SDS011;50714;49.208;5.364;2022-12-18T00:54:30;14.23;;;11.60;;
48026;SDS011;50714;49.208;5.364;2022-12-18T01:04:33;12.88;;;10.75;;
48026;SDS011;50714;49.208;5.364;2022-12-18T01:14:34;19.55;;;14.00;;
48026;SDS011;50714;49.208;5.364;2022-12-18T01:24:34;15.73;;;12.50;;
48026;SDS011;50714;49.208;5.364;2022-12-18T01:34:35;16.15;;;13.98;;
48026;SDS011;50714;49.208;5.364;2022-12-18T01:54:55;17.55;;;14.45;;
48026;SDS011;50714;49.208;5.364;2022-12-18T02:04:56;23.08;;;17.40;;
48026;SDS011;50714;49.208;5.364;2022-12-18T02:25:32;16.08;;;13.93;;
48026;SDS011;50714;49.208;5.364;2022-12-18T02:35:46;22.35;;;17.95;;
48026;SDS011;50714;49.208;5.364;2022-12-18T02:45:49;24.98;;;19.77;;
48026;SDS011;50714;49.208;5.364;2022-12-18T02:56:08;22.35;;;17.95;;
48026;SDS011;50714;49.208;5.364;2022-12-18T03:06:14;22.73;;;18.05;;
48026;SDS011;50714;49.208;5.364;2022-12-18T03:16:27;26.13;;;20.83;;
48026;SDS011;50714;49.208;5.364;2022-12-18T03:26:30;23.60;;;19.97;;
48026;SDS011;50714;49.208;5.364;2022-12-18T03:36:31;26.02;;;21.75;;
48026;SDS011;50714;49.208;5.364;2022-12-18T03:56:47;31.85;;;25.25;;
48026;SDS011;50714;49.208;5.364;2022-12-18T04:06:50;28.58;;;24.65;;
48026;SDS011;50714;49.208;5.364;2022-12-18T04:16:53;32.78;;;26.50;;
48026;SDS011;50714;49.208;5.364;2022-12-18T04:26:54;42.20;;;32.70;;
48026;SDS011;50714;49.208;5.364;2022-12-18T04:36:54;40.03;;;30.33;;
48026;SDS011;50714;49.208;5.364;2022-12-18T04:46:54;57.50;;;43.78;;
48026;SDS011;50714;49.208;5.364;2022-12-18T04:56:55;48.20;;;34.90;;
48026;SDS011;50714;49.208;5.364;2022-12-18T05:06:56;47.33;;;35.70;;
48026;SDS011;50714;49.208;5.364;2022-12-18T05:16:56;41.13;;;30.67;;
48026;SDS011;50714;49.208;5.364;2022-12-18T05:26:56;40.08;;;29.17;;
48026;SDS011;50714;49.208;5.364;2022-12-18T05:36:57;38.95;;;29.02;;
48026;SDS011;50714;49.208;5.364;2022-12-18T05:46:57;38.45;;;28.88;;
48026;SDS011;50714;49.208;5.364;2022-12-18T05:56:58;47.45;;;33.78;;
48026;SDS011;50714;49.208;5.364;2022-12-18T06:06:58;49.57;;;37.43;;
48026;SDS011;50714;49.208;5.364;2022-12-18T06:16:59;50.78;;;33.45;;
48026;SDS011;50714;49.208;5.364;2022-12-18T06:26:59;40.65;;;28.00;;
48026;SDS011;50714;49.208;5.364;2022-12-18T06:36:59;50.92;;;34.08;;
48026;SDS011;50714;49.208;5.364;2022-12-18T06:47:00;40.38;;;28.50;;
48026;SDS011;50714;49.208;5.364;2022-12-18T06:57:00;46.83;;;30.45;;
48026;SDS011;50714;49.208;5.364;2022-12-18T07:07:01;40.08;;;30.08;;
48026;SDS011;50714;49.208;5.364;2022-12-18T07:17:01;43.58;;;29.75;;
48026;SDS011;50714;49.208;5.364;2022-12-18T07:27:01;32.88;;;22.75;;
48026;SDS011;50714;49.208;5.364;2022-12-18T07:37:02;29.02;;;21.98;;
48026;SDS011;50714;49.208;5.364;2022-12-18T07:47:02;34.83;;;25.92;;
48026;SDS011;50714;49.208;5.364;2022-12-18T07:57:03;37.25;;;25.85;;
48026;SDS011;50714;49.208;5.364;2022-12-18T08:07:03;35.75;;;24.73;;
48026;SDS011;50714;49.208;5.364;2022-12-18T08:17:04;35.15;;;24.25;;
48026;SDS011;50714;49.208;5.364;2022-12-18T08:27:04;33.28;;;23.17;;
48026;SDS011;50714;49.208;5.364;2022-12-18T08:37:05;38.70;;;26.98;;
48026;SDS011;50714;49.208;5.364;2022-12-18T08:47:06;31.83;;;22.63;;
48026;SDS011;50714;49.208;5.364;2022-12-18T08:57:07;37.90;;;26.63;;
48026;SDS011;50714;49.208;5.364;2022-12-18T09:07:07;37.72;;;25.05;;
48026;SDS011;50714;49.208;5.364;2022-12-18T09:17:07;50.85;;;32.75;;
48026;SDS011;50714;49.208;5.364;2022-12-18T09:27:08;45.33;;;31.58;;
48026;SDS011;50714;49.208;5.364;2022-12-18T09:37:08;40.10;;;28.67;;
48026;SDS011;50714;49.208;5.364;2022-12-18T09:57:14;45.17;;;31.33;;
48026;SDS011;50714;49.208;5.364;2022-12-18T10:07:19;39.03;;;27.88;;
48026;SDS011;50714;49.208;5.364;2022-12-18T10:27:37;37.33;;;25.88;;
48026;SDS011;50714;49.208;5.364;2022-12-18T10:37:37;36.72;;;25.27;;
48026;SDS011;50714;49.208;5.364;2022-12-18T10:48:19;39.92;;;26.50;;
48026;SDS011;50714;49.208;5.364;2022-12-18T10:58:35;49.95;;;32.15;;
48026;SDS011;50714;49.208;5.364;2022-12-18T11:08:38;50.50;;;34.40;;
48026;SDS011;50714;49.208;5.364;2022-12-18T11:18:39;41.50;;;29.05;;
48026;SDS011;50714;49.208;5.364;2022-12-18T11:28:44;42.90;;;29.23;;
48026;SDS011;50714;49.208;5.364;2022-12-18T11:38:47;36.13;;;25.52;;
48026;SDS011;50714;49.208;5.364;2022-12-18T11:48:53;39.50;;;28.08;;
48026;SDS011;50714;49.208;5.364;2022-12-18T12:40:18;37.65;;;26.85;;
48026;SDS011;50714;49.208;5.364;2022-12-18T12:50:20;40.47;;;26.40;;
48026;SDS011;50714;49.208;5.364;2022-12-18T13:00:22;35.60;;;24.95;;
48026;SDS011;50714;49.208;5.364;2022-12-18T13:10:31;34.30;;;23.50;;
48026;SDS011;50714;49.208;5.364;2022-12-18T13:20:32;33.92;;;24.08;;
48026;SDS011;50714;49.208;5.364;2022-12-18T13:50:38;30.05;;;22.33;;
48026;SDS011;50714;49.208;5.364;2022-12-18T14:00:42;47.50;;;33.85;;
48026;SDS011;50714;49.208;5.364;2022-12-18T14:10:44;33.10;;;24.13;;
48026;SDS011;50714;49.208;5.364;2022-12-18T14:20:47;33.42;;;24.08;;
48026;SDS011;50714;49.208;5.364;2022-12-18T14:30:49;30.35;;;22.50;;
48026;SDS011;50714;49.208;5.364;2022-12-18T14:40:53;29.45;;;22.23;;
48026;SDS011;50714;49.208;5.364;2022-12-18T15:01:47;26.95;;;20.33;;
48026;SDS011;50714;49.208;5.364;2022-12-18T15:12:01;29.15;;;21.50;;
48026;SDS011;50714;49.208;5.364;2022-12-18T15:22:02;27.83;;;21.05;;
48026;SDS011;50714;49.208;5.364;2022-12-18T15:32:03;21.97;;;17.30;;
48026;SDS011;50714;49.208;5.364;2022-12-18T15:42:07;24.67;;;18.75;;
48026;SDS011;50714;49.208;5.364;2022-12-18T15:52:27;26.25;;;19.35;;
48026;SDS011;50714;49.208;5.364;2022-12-18T16:02:28;28.65;;;20.02;;
48026;SDS011;50714;49.208;5.364;2022-12-18T16:12:28;26.58;;;19.45;;
48026;SDS011;50714;49.208;5.364;2022-12-18T16:22:29;33.17;;;22.25;;
48026;SDS011;50714;49.208;5.364;2022-12-18T16:32:29;29.30;;;20.95;;
48026;SDS011;50714;49.208;5.364;2022-12-18T16:42:30;29.80;;;22.25;;
48026;SDS011;50714;49.208;5.364;2022-12-18T16:52:30;27.85;;;19.60;;
48026;SDS011;50714;49.208;5.364;2022-12-18T17:02:31;28.70;;;20.70;;
48026;SDS011;50714;49.208;5.364;2022-12-18T17:12:32;27.08;;;19.65;;
48026;SDS011;50714;49.208;5.364;2022-12-18T17:22:32;79.20;;;44.78;;
48026;SDS011;50714;49.208;5.364;2022-12-18T17:32:33;105.72;;;59.20;;
48026;SDS011;50714;49.208;5.364;2022-12-18T17:42:33;54.63;;;38.05;;
48026;SDS011;50714;49.208;5.364;2022-12-18T17:52:33;42.72;;;32.55;;
48026;SDS011;50714;49.208;5.364;2022-12-18T18:02:34;33.10;;;25.20;;
48026;SDS011;50714;49.208;5.364;2022-12-18T18:12:35;29.40;;;22.08;;
48026;SDS011;50714;49.208;5.364;2022-12-18T18:22:54;26.17;;;20.50;;
48026;SDS011;50714;49.208;5.364;2022-12-18T18:32:55;30.77;;;21.95;;
48026;SDS011;50714;49.208;5.364;2022-12-18T18:42:55;30.25;;;21.45;;
48026;SDS011;50714;49.208;5.364;2022-12-18T18:52:56;26.00;;;18.67;;
48026;SDS011;50714;49.208;5.364;2022-12-18T19:02:56;29.42;;;21.92;;
48026;SDS011;50714;49.208;5.364;2022-12-18T19:12:56;24.58;;;18.15;;
48026;SDS011;50714;49.208;5.364;2022-12-18T19:23:15;29.40;;;22.10;;
48026;SDS011;50714;49.208;5.364;2022-12-18T19:33:16;27.08;;;20.38;;
48026;SDS011;50714;49.208;5.364;2022-12-18T19:43:16;28.70;;;21.40;;
48026;SDS011;50714;49.208;5.364;2022-12-18T19:53:17;24.73;;;18.47;;
48026;SDS011;50714;49.208;5.364;2022-12-18T20:03:17;28.23;;;19.95;;
48026;SDS011;50714;49.208;5.364;2022-12-18T20:13:17;48.40;;;29.92;;
48026;SDS011;50714;49.208;5.364;2022-12-18T20:23:18;48.67;;;32.28;;
48026;SDS011;50714;49.208;5.364;2022-12-18T20:33:20;58.70;;;38.58;;
48026;SDS011;50714;49.208;5.364;2022-12-18T20:43:21;53.53;;;35.85;;
48026;SDS011;50714;49.208;5.364;2022-12-18T20:53:21;28.90;;;21.55;;
48026;SDS011;50714;49.208;5.364;2022-12-18T21:03:21;36.95;;;24.92;;
48026;SDS011;50714;49.208;5.364;2022-12-18T21:13:22;26.83;;;19.90;;
48026;SDS011;50714;49.208;5.364;2022-12-18T21:23:22;25.95;;;18.30;;
48026;SDS011;50714;49.208;5.364;2022-12-18T21:33:22;25.38;;;18.63;;
48026;SDS011;50714;49.208;5.364;2022-12-18T21:43:23;23.33;;;16.92;;
48026;SDS011;50714;49.208;5.364;2022-12-18T21:53:42;20.50;;;15.88;;
48026;SDS011;50714;49.208;5.364;2022-12-18T22:03:43;24.77;;;19.45;;
48026;SDS011;50714;49.208;5.364;2022-12-18T22:13:44;22.48;;;17.58;;
48026;SDS011;50714;49.208;5.364;2022-12-18T22:23:50;23.02;;;17.83;;
48026;SDS011;50714;49.208;5.364;2022-12-18T22:34:00;22.60;;;17.95;;
48026;SDS011;50714;49.208;5.364;2022-12-18T22:44:01;22.17;;;18.27;;
48026;SDS011;50714;49.208;5.364;2022-12-18T22:54:01;24.52;;;18.48;;
48026;SDS011;50714;49.208;5.364;2022-12-18T23:04:01;21.83;;;17.77;;
48026;SDS011;50714;49.208;5.364;2022-12-18T23:14:02;21.13;;;16.77;;
48026;SDS011;50714;49.208;5.364;2022-12-18T23:24:02;21.33;;;16.63;;
48026;SDS011;50714;49.208;5.364;2022-12-18T23:34:03;19.10;;;15.18;;
48026;SDS011;50714;49.208;5.364;2022-12-18T23:44:04;18.75;;;14.85;;
48026;SDS011;50714;49.208;5.364;2022-12-18T23:54:05;16.95;;;13.35;;
